createdAt,value
2019-02-19T00:00:20.074Z,33.40
2019-02-19T00:02:52.823Z,33.30
2019-02-19T00:05:25.966Z,33.60
2019-02-19T00:07:58.973Z,33.70
2019-02-19T00:10:32.165Z,33.70
2019-02-19T00:13:04.957Z,33.60
2019-02-19T00:15:37.917Z,33.40
2019-02-19T00:18:10.705Z,33.30
2019-02-19T00:20:43.349Z,33.20
2019-02-19T00:23:16.358Z,33.30
2019-02-19T00:25:49.025Z,33.20
2019-02-19T00:28:22.034Z,33.20
2019-02-19T00:30:54.810Z,33.10
2019-02-19T00:33:27.745Z,33.10
2019-02-19T00:36:00.580Z,33.10
2019-02-19T00:38:34.560Z,32.80
2019-02-19T00:41:07.382Z,32.80
2019-02-19T00:43:40.353Z,32.90
2019-02-19T00:46:12.917Z,32.90
2019-02-19T00:48:46.068Z,32.80
2019-02-19T00:51:18.833Z,32.90
2019-02-19T00:53:51.626Z,32.80
2019-02-19T00:56:24.394Z,32.90
2019-02-19T00:58:58.850Z,33.00
2019-02-19T01:01:31.619Z,33.10
2019-02-19T01:04:04.386Z,33.10
2019-02-19T01:06:36.899Z,33.20
2019-02-19T01:09:10.764Z,33.30
2019-02-19T01:11:49.297Z,33.40
2019-02-19T01:14:22.357Z,33.50
2019-02-19T01:16:55.736Z,33.80
2019-02-19T01:19:28.710Z,34.10
2019-02-19T01:22:01.916Z,34.30
2019-02-19T01:24:35.307Z,34.50
2019-02-19T01:27:08.504Z,34.60
2019-02-19T01:29:41.705Z,34.70
2019-02-19T01:32:15.866Z,34.80
2019-02-19T01:34:49.105Z,34.90
2019-02-19T01:37:22.846Z,35.00
2019-02-19T01:39:56.121Z,35.20
2019-02-19T01:42:29.618Z,35.50
2019-02-19T01:45:02.280Z,35.60
2019-02-19T01:47:36.135Z,35.80
2019-02-19T01:50:10.927Z,36.00
2019-02-19T01:52:43.695Z,36.00
2019-02-19T01:55:17.710Z,36.10
2019-02-19T01:57:50.516Z,36.30
2019-02-19T02:00:24.497Z,36.40
2019-02-19T02:02:57.293Z,36.50
2019-02-19T02:05:31.180Z,36.60
2019-02-19T02:08:03.894Z,36.60
2019-02-19T02:10:37.746Z,36.70
2019-02-19T02:13:10.455Z,36.80
2019-02-19T02:15:43.538Z,36.90
2019-02-19T02:18:16.225Z,37.00
2019-02-19T02:20:50.169Z,37.40
2019-02-19T02:23:22.889Z,37.90
2019-02-19T02:25:55.794Z,38.20
2019-02-19T02:28:28.562Z,38.60
2019-02-19T02:31:01.876Z,38.90
2019-02-19T02:33:34.971Z,39.10
2019-02-19T02:36:08.610Z,39.30
2019-02-19T02:38:41.573Z,39.40
2019-02-19T02:41:16.172Z,39.40
2019-02-19T02:43:48.956Z,39.40
2019-02-19T02:46:22.067Z,38.90
2019-02-19T02:48:55.347Z,38.10
2019-02-19T02:51:28.340Z,37.10
2019-02-19T02:54:01.110Z,35.90
2019-02-19T02:56:34.495Z,34.70
2019-02-19T02:59:07.699Z,33.80
2019-02-19T03:01:41.706Z,33.00
2019-02-19T03:04:15.112Z,32.40
2019-02-19T03:06:50.430Z,31.90
2019-02-19T03:09:23.470Z,31.50
2019-02-19T03:11:56.396Z,31.20
2019-02-19T03:14:28.992Z,30.90
2019-02-19T03:17:01.991Z,30.70
2019-02-19T03:19:34.875Z,30.50
2019-02-19T03:22:07.671Z,30.30
2019-02-19T03:24:40.641Z,30.10
2019-02-19T03:27:13.307Z,29.90
2019-02-19T03:29:46.287Z,29.80
2019-02-19T03:32:19.026Z,29.50
2019-02-19T03:34:52.195Z,29.40
2019-02-19T03:37:25.006Z,29.40
2019-02-19T03:39:57.940Z,29.40
2019-02-19T03:42:30.735Z,29.30
2019-02-19T03:45:03.705Z,29.30
2019-02-19T03:47:36.465Z,29.30
2019-02-19T03:50:09.483Z,29.20
2019-02-19T03:52:42.756Z,29.10
2019-02-19T03:55:15.520Z,29.00
2019-02-19T03:57:48.428Z,29.00
2019-02-19T04:00:21.221Z,28.90
2019-02-19T04:02:55.845Z,28.80
2019-02-19T04:05:28.723Z,28.70
2019-02-19T04:08:01.631Z,28.70
2019-02-19T04:10:34.386Z,28.60
2019-02-19T04:13:07.374Z,28.50
2019-02-19T04:15:39.946Z,28.40
2019-02-19T04:18:12.960Z,28.30
2019-02-19T04:20:45.619Z,28.20
2019-02-19T04:23:18.595Z,28.20
2019-02-19T04:25:51.289Z,28.20
2019-02-19T04:28:24.848Z,28.20
2019-02-19T04:31:00.734Z,28.10
2019-02-19T04:33:33.836Z,28.10
2019-02-19T04:36:06.513Z,28.00
2019-02-19T04:38:39.487Z,28.00
2019-02-19T04:41:12.303Z,27.90
2019-02-19T04:43:45.180Z,27.90
2019-02-19T04:46:17.914Z,27.80
2019-02-19T04:48:50.637Z,27.70
2019-02-19T04:51:23.452Z,27.60
2019-02-19T04:53:56.206Z,27.50
2019-02-19T04:56:29.249Z,27.50
2019-02-19T04:59:01.823Z,27.40
2019-02-19T05:01:34.571Z,27.30
2019-02-19T05:04:08.551Z,27.30
2019-02-19T05:06:41.486Z,27.20
2019-02-19T05:09:14.118Z,27.10
2019-02-19T05:11:47.543Z,27.00
2019-02-19T05:14:20.307Z,26.90
2019-02-19T05:16:54.212Z,26.90
2019-02-19T05:19:27.436Z,26.80
2019-02-19T05:22:00.070Z,26.80
2019-02-19T05:24:32.920Z,26.80
2019-02-19T05:27:05.644Z,26.80
2019-02-19T05:29:38.308Z,26.70
2019-02-19T05:32:11.831Z,26.60
2019-02-19T05:34:44.807Z,26.50
2019-02-19T05:37:17.939Z,26.50
2019-02-19T05:39:51.046Z,26.40
2019-02-19T05:42:24.286Z,26.40
2019-02-19T05:44:57.322Z,26.30
2019-02-19T05:47:30.500Z,26.30
2019-02-19T05:50:03.488Z,26.30
2019-02-19T05:52:37.303Z,26.20
2019-02-19T05:55:10.734Z,26.20
2019-02-19T05:57:45.909Z,26.10
2019-02-19T06:00:18.896Z,26.00
2019-02-19T06:02:51.678Z,26.00
2019-02-19T06:05:25.375Z,25.90
2019-02-19T06:07:58.631Z,25.90
2019-02-19T06:10:31.665Z,25.80
2019-02-19T06:13:04.676Z,25.70
2019-02-19T06:15:37.854Z,25.70
2019-02-19T06:18:10.790Z,25.60
2019-02-19T06:20:43.732Z,25.60
2019-02-19T06:23:16.614Z,25.50
2019-02-19T06:25:49.670Z,25.50
2019-02-19T06:28:22.434Z,25.40
2019-02-19T06:30:55.558Z,25.40
2019-02-19T06:33:28.555Z,25.30
2019-02-19T06:36:01.616Z,25.30
2019-02-19T06:38:34.427Z,25.20
2019-02-19T06:41:07.696Z,25.10
2019-02-19T06:43:40.905Z,25.00
2019-02-19T06:46:14.045Z,25.00
2019-02-19T06:48:47.106Z,24.90
2019-02-19T06:51:20.291Z,24.90
2019-02-19T06:53:53.122Z,24.80
2019-02-19T06:56:26.253Z,24.80
2019-02-19T06:58:59.125Z,24.80
2019-02-19T07:01:48.950Z,24.70
2019-02-19T07:04:24.268Z,24.70
2019-02-19T07:06:59.662Z,24.60
2019-02-19T07:09:32.671Z,24.50
2019-02-19T07:12:05.822Z,24.50
2019-02-19T07:14:38.866Z,24.50
2019-02-19T07:17:15.717Z,24.40
2019-02-19T07:19:45.964Z,24.40
2019-02-19T07:22:19.024Z,24.30
2019-02-19T07:24:52.037Z,24.30
2019-02-19T07:27:25.032Z,24.30
2019-02-19T07:29:57.864Z,24.20
2019-02-19T07:32:31.196Z,24.20
2019-02-19T07:35:03.871Z,24.10
2019-02-19T07:37:36.731Z,24.00
2019-02-19T07:40:11.207Z,24.00
2019-02-19T07:42:44.603Z,24.00
2019-02-19T07:45:17.796Z,23.90
2019-02-19T07:47:50.983Z,23.90
2019-02-19T07:50:24.089Z,23.90
2019-02-19T07:52:57.217Z,23.90
2019-02-19T07:55:30.343Z,23.80
2019-02-19T07:58:03.340Z,23.80
2019-02-19T08:00:36.573Z,23.70
2019-02-19T08:03:09.501Z,23.70
2019-02-19T08:05:43.045Z,23.60
2019-02-19T08:08:16.084Z,23.60
2019-02-19T08:10:49.296Z,23.50
2019-02-19T08:13:22.283Z,23.40
2019-02-19T08:15:55.564Z,23.30
2019-02-19T08:18:28.470Z,23.30
2019-02-19T08:21:01.665Z,23.20
2019-02-19T08:23:34.636Z,23.20
2019-02-19T08:26:07.799Z,23.20
2019-02-19T08:28:40.812Z,23.20
2019-02-19T08:31:14.120Z,23.20
2019-02-19T08:33:46.859Z,23.10
2019-02-19T08:36:20.676Z,23.10
2019-02-19T08:38:53.568Z,23.10
2019-02-19T08:41:26.841Z,23.10
2019-02-19T08:43:59.765Z,23.00
2019-02-19T08:46:32.943Z,23.00
2019-02-19T08:49:05.921Z,23.00
2019-02-19T08:51:39.111Z,23.00
2019-02-19T08:54:12.112Z,23.00
2019-02-19T08:56:45.508Z,23.00
2019-02-19T08:59:19.648Z,22.90
2019-02-19T09:01:52.852Z,22.90
2019-02-19T09:04:25.587Z,22.80
2019-02-19T09:06:58.896Z,22.80
2019-02-19T09:09:32.011Z,22.80
2019-02-19T09:12:05.151Z,22.70
2019-02-19T09:14:38.067Z,22.60
2019-02-19T09:17:11.471Z,22.60
2019-02-19T09:19:44.441Z,22.50
2019-02-19T09:22:18.723Z,22.40
2019-02-19T09:24:51.827Z,22.40
2019-02-19T09:27:25.246Z,22.30
2019-02-19T09:29:58.207Z,22.30
2019-02-19T09:32:31.415Z,22.20
2019-02-19T09:35:04.388Z,22.20
2019-02-19T09:37:37.419Z,22.10
2019-02-19T09:40:11.848Z,22.10
2019-02-19T09:42:45.014Z,22.00
2019-02-19T09:45:17.974Z,21.90
2019-02-19T09:48:00.759Z,21.80
2019-02-19T09:50:26.457Z,21.80
2019-02-19T09:53:00.217Z,21.80
2019-02-19T09:55:33.607Z,21.80
2019-02-19T09:58:06.455Z,21.70
2019-02-19T10:00:39.467Z,21.70
2019-02-19T10:03:12.560Z,21.70
2019-02-19T10:05:45.704Z,21.70
2019-02-19T10:08:19.284Z,21.70
2019-02-19T10:10:52.993Z,21.70
2019-02-19T10:13:25.917Z,21.60
2019-02-19T10:15:58.812Z,21.60
2019-02-19T10:18:31.553Z,21.60
2019-02-19T10:21:04.651Z,21.60
2019-02-19T10:23:37.685Z,21.60
2019-02-19T10:26:10.838Z,21.60
2019-02-19T10:28:44.940Z,21.60
2019-02-19T10:31:18.037Z,21.60
2019-02-19T10:33:50.841Z,21.50
2019-02-19T10:36:23.710Z,21.50
2019-02-19T10:38:56.598Z,21.40
2019-02-19T10:41:29.626Z,21.40
2019-02-19T10:44:02.359Z,21.40
2019-02-19T10:46:35.507Z,21.40
2019-02-19T10:49:08.667Z,21.30
2019-02-19T10:51:42.461Z,21.30
2019-02-19T10:54:16.406Z,21.30
2019-02-19T10:56:53.947Z,21.30
2019-02-19T10:59:28.819Z,21.20
2019-02-19T11:02:03.198Z,21.20
2019-02-19T11:04:36.127Z,21.10
2019-02-19T11:07:12.392Z,21.10
2019-02-19T11:09:45.435Z,21.00
2019-02-19T11:12:18.566Z,20.90
2019-02-19T11:14:52.342Z,20.90
2019-02-19T11:17:25.283Z,20.90
2019-02-19T11:19:58.240Z,20.90
2019-02-19T11:22:31.212Z,20.90
2019-02-19T11:25:04.080Z,20.90
2019-02-19T11:27:37.201Z,20.90
2019-02-19T11:30:12.467Z,20.90
2019-02-19T11:32:45.484Z,20.90
2019-02-19T11:35:18.265Z,21.00
2019-02-19T11:37:51.409Z,20.90
2019-02-19T11:40:24.453Z,20.90
2019-02-19T11:42:57.457Z,20.90
2019-02-19T11:45:30.430Z,20.90
2019-02-19T11:48:03.500Z,20.90
2019-02-19T11:50:36.410Z,20.90
2019-02-19T11:53:09.313Z,20.90
2019-02-19T11:55:42.182Z,20.90
2019-02-19T11:58:15.146Z,20.90
2019-02-19T12:00:48.358Z,20.90
2019-02-19T12:03:21.335Z,20.80
2019-02-19T12:05:54.113Z,20.80
2019-02-19T12:08:28.232Z,20.70
2019-02-19T12:11:01.236Z,20.70
2019-02-19T12:13:34.293Z,20.70
2019-02-19T12:16:07.188Z,20.60
2019-02-19T12:18:45.913Z,20.60
2019-02-19T12:21:14.297Z,20.50
2019-02-19T12:23:47.386Z,20.50
2019-02-19T12:26:20.264Z,20.40
2019-02-19T12:28:53.337Z,20.40
2019-02-19T12:31:26.504Z,20.30
2019-02-19T12:33:59.663Z,20.30
2019-02-19T12:36:32.923Z,20.30
2019-02-19T12:39:07.019Z,20.20
2019-02-19T12:41:39.963Z,20.20
2019-02-19T12:44:12.819Z,20.20
2019-02-19T12:46:45.948Z,20.20
2019-02-19T12:49:18.778Z,20.10
2019-02-19T12:51:51.796Z,20.10
2019-02-19T12:54:24.733Z,20.00
2019-02-19T12:56:58.672Z,20.00
2019-02-19T12:59:31.540Z,20.00
2019-02-19T13:02:04.673Z,20.00
2019-02-19T13:04:37.522Z,19.90
2019-02-19T13:07:10.365Z,19.90
2019-02-19T13:09:43.414Z,19.90
2019-02-19T13:12:16.874Z,19.80
2019-02-19T13:14:49.714Z,19.80
2019-02-19T13:17:22.782Z,19.70
2019-02-19T13:19:55.655Z,19.70
2019-02-19T13:22:28.612Z,19.70
2019-02-19T13:25:01.427Z,19.70
2019-02-19T13:27:34.583Z,19.70
2019-02-19T13:30:10.467Z,19.70
2019-02-19T13:32:43.688Z,19.60
2019-02-19T13:35:17.021Z,19.60
2019-02-19T13:37:50.875Z,19.60
2019-02-19T13:40:23.665Z,19.60
2019-02-19T13:42:56.817Z,19.60
2019-02-19T13:45:29.639Z,19.60
2019-02-19T13:48:05.982Z,19.60
2019-02-19T13:50:36.487Z,19.60
2019-02-19T13:53:22.874Z,19.50
2019-02-19T13:55:56.869Z,19.50
2019-02-19T13:58:29.727Z,19.40
2019-02-19T14:01:02.863Z,19.40
2019-02-19T14:03:35.884Z,19.40
2019-02-19T14:06:09.247Z,19.40
2019-02-19T14:08:42.051Z,19.30
2019-02-19T14:11:14.953Z,19.30
2019-02-19T14:13:49.214Z,19.30
2019-02-19T14:16:23.713Z,19.30
2019-02-19T14:18:57.616Z,19.30
2019-02-19T14:21:34.811Z,19.30
2019-02-19T14:24:08.730Z,19.30
2019-02-19T14:26:55.420Z,19.30
2019-02-19T14:29:46.114Z,19.20
2019-02-19T14:32:35.895Z,19.20
2019-02-19T14:35:11.595Z,19.10
2019-02-19T14:37:49.979Z,19.10
2019-02-19T14:40:24.103Z,19.10
2019-02-19T14:43:04.636Z,19.10
2019-02-19T14:45:55.029Z,19.10
2019-02-19T14:48:39.072Z,19.10
2019-02-19T14:51:29.281Z,19.10
2019-02-19T14:54:03.469Z,19.10
2019-02-19T14:56:37.485Z,19.00
2019-02-19T14:59:15.259Z,19.00
2019-02-19T15:02:05.817Z,19.00
2019-02-19T15:04:56.310Z,19.00
2019-02-19T15:07:48.627Z,19.00
2019-02-19T15:10:26.426Z,19.00
2019-02-19T15:13:06.480Z,18.90
2019-02-19T15:15:40.627Z,18.90
2019-02-19T15:18:14.891Z,18.90
2019-02-19T15:20:49.019Z,18.90
2019-02-19T15:23:25.999Z,18.90
2019-02-19T15:26:06.716Z,18.80
2019-02-19T15:28:56.707Z,18.80
2019-02-19T15:31:34.050Z,18.80
2019-02-19T15:34:23.511Z,18.80
2019-02-19T15:37:16.217Z,18.80
2019-02-19T15:40:06.653Z,18.80
2019-02-19T15:42:40.906Z,18.80
2019-02-19T15:45:32.726Z,18.70
2019-02-19T15:48:23.314Z,18.70
2019-02-19T15:51:13.378Z,18.70
2019-02-19T15:53:47.416Z,18.70
2019-02-19T15:56:24.822Z,18.70
2019-02-19T15:59:14.160Z,18.70
2019-02-19T16:01:54.121Z,18.80
2019-02-19T16:04:40.723Z,18.80
2019-02-19T16:07:24.279Z,18.80
2019-02-19T16:10:16.807Z,18.80
2019-02-19T16:12:54.055Z,18.80
2019-02-19T16:15:33.969Z,18.80
2019-02-19T16:18:09.063Z,18.80
2019-02-19T16:20:52.055Z,18.80
2019-02-19T16:23:26.107Z,18.80
2019-02-19T16:26:06.462Z,18.80
2019-02-19T16:28:43.396Z,18.80
2019-02-19T16:31:17.469Z,18.70
2019-02-19T16:34:10.417Z,18.70
2019-02-19T16:36:47.254Z,18.70
2019-02-19T16:39:28.564Z,18.70
2019-02-19T16:42:14.669Z,18.70
2019-02-19T16:44:58.939Z,18.60
2019-02-19T16:47:35.688Z,18.60
2019-02-19T16:50:11.578Z,18.60
2019-02-19T16:52:51.433Z,18.60
2019-02-19T16:55:34.618Z,18.60
2019-02-19T16:58:12.103Z,18.60
2019-02-19T17:00:50.705Z,18.60
2019-02-19T17:03:27.357Z,18.60
2019-02-19T17:06:10.181Z,18.60
2019-02-19T17:08:46.999Z,18.60
2019-02-19T17:11:21.010Z,18.50
2019-02-19T17:14:11.306Z,18.50
2019-02-19T17:16:51.783Z,18.50
2019-02-19T17:19:32.127Z,18.50
2019-02-19T17:22:09.964Z,18.50
2019-02-19T17:24:50.380Z,18.50
2019-02-19T17:27:24.379Z,18.50
2019-02-19T17:30:06.955Z,18.50
2019-02-19T17:32:41.035Z,18.50
2019-02-19T17:35:18.511Z,18.50
2019-02-19T17:38:01.844Z,18.50
2019-02-19T17:40:35.940Z,18.50
2019-02-19T17:43:09.974Z,18.50
2019-02-19T17:45:59.119Z,18.50
2019-02-19T17:48:45.336Z,18.50
2019-02-19T17:51:35.301Z,18.50
2019-02-19T17:54:18.634Z,18.50
2019-02-19T17:57:01.435Z,18.50
2019-02-19T17:59:41.820Z,18.60
2019-02-19T18:02:15.871Z,18.60
2019-02-19T18:04:55.909Z,18.60
2019-02-19T18:07:30.235Z,18.70
2019-02-19T18:10:04.718Z,18.70
2019-02-19T18:12:44.505Z,18.70
2019-02-19T18:15:35.129Z,18.70
2019-02-19T18:18:15.512Z,18.80
2019-02-19T18:20:48.707Z,18.90
2019-02-19T18:23:21.659Z,19.00
2019-02-19T18:25:54.571Z,19.10
2019-02-19T18:28:27.844Z,19.20
2019-02-19T18:31:00.700Z,19.30
2019-02-19T18:33:33.603Z,19.30
2019-02-19T18:36:06.581Z,19.40
2019-02-19T18:38:39.386Z,19.50
2019-02-19T18:41:12.032Z,19.60
2019-02-19T18:43:45.113Z,19.60
2019-02-19T18:46:18.124Z,19.70
2019-02-19T18:48:51.116Z,19.80
2019-02-19T18:51:24.224Z,19.80
2019-02-19T18:53:57.284Z,19.90
2019-02-19T18:56:30.096Z,20.00
2019-02-19T18:59:03.272Z,20.10
2019-02-19T19:01:36.044Z,20.10
2019-02-19T19:04:08.960Z,20.20
2019-02-19T19:06:41.826Z,20.30
2019-02-19T19:09:15.125Z,20.40
2019-02-19T19:11:48.001Z,20.50
2019-02-19T19:14:21.381Z,20.70
2019-02-19T19:16:54.306Z,20.90
2019-02-19T19:19:27.361Z,21.10
2019-02-19T19:22:00.137Z,21.20
2019-02-19T19:24:33.132Z,21.30
2019-02-19T19:27:05.941Z,21.40
2019-02-19T19:29:39.000Z,21.60
2019-02-19T19:32:12.484Z,21.70
2019-02-19T19:34:45.704Z,21.90
2019-02-19T19:37:18.495Z,22.00
2019-02-19T19:39:51.902Z,22.10
2019-02-19T19:42:24.770Z,22.10
2019-02-19T19:44:57.878Z,22.10
2019-02-19T19:47:30.758Z,22.10
2019-02-19T19:50:03.911Z,22.10
2019-02-19T19:52:36.802Z,22.20
2019-02-19T19:55:11.339Z,22.30
2019-02-19T19:57:44.201Z,22.30
2019-02-19T20:00:17.844Z,22.30
2019-02-19T20:02:50.831Z,22.40
2019-02-19T20:05:24.308Z,22.40
2019-02-19T20:07:57.244Z,22.40
2019-02-19T20:10:30.063Z,22.40
2019-02-19T20:13:03.205Z,22.50
2019-02-19T20:15:36.140Z,22.70
2019-02-19T20:18:09.458Z,22.80
2019-02-19T20:20:42.314Z,22.90
2019-02-19T20:23:15.199Z,23.00
2019-02-19T20:25:48.082Z,23.10
2019-02-19T20:28:21.215Z,23.20
2019-02-19T20:30:54.244Z,23.40
2019-02-19T20:33:27.954Z,23.60
2019-02-19T20:36:00.918Z,24.00
2019-02-19T20:38:33.851Z,24.50
2019-02-19T20:41:06.832Z,24.90
2019-02-19T20:43:39.612Z,25.40
2019-02-19T20:46:13.669Z,25.90
2019-02-19T20:48:46.612Z,26.30
2019-02-19T20:51:19.512Z,26.60
2019-02-19T20:53:52.566Z,26.90
2019-02-19T20:56:25.369Z,27.20
2019-02-19T20:58:58.640Z,27.50
2019-02-19T21:01:31.538Z,27.70
2019-02-19T21:04:04.460Z,27.90
2019-02-19T21:06:37.840Z,28.20
2019-02-19T21:09:10.592Z,28.50
2019-02-19T21:11:43.680Z,28.80
2019-02-19T21:14:16.471Z,29.10
2019-02-19T21:16:49.462Z,29.40
2019-02-19T21:19:22.366Z,29.60
2019-02-19T21:21:55.577Z,29.80
2019-02-19T21:24:30.077Z,30.10
2019-02-19T21:27:02.530Z,30.30
2019-02-19T21:29:35.605Z,30.40
2019-02-19T21:32:08.404Z,30.60
2019-02-19T21:34:42.390Z,30.80
2019-02-19T21:37:15.343Z,30.90
2019-02-19T21:39:48.384Z,30.90
2019-02-19T21:42:22.543Z,31.00
2019-02-19T21:44:55.536Z,31.10
2019-02-19T21:47:28.502Z,31.30
2019-02-19T21:50:02.542Z,31.70
2019-02-19T21:52:35.361Z,31.90
2019-02-19T21:55:09.858Z,32.20
2019-02-19T21:57:42.797Z,32.40
2019-02-19T22:00:20.588Z,32.60
2019-02-19T22:02:53.666Z,32.90
2019-02-19T22:05:26.656Z,33.10
2019-02-19T22:07:59.923Z,33.40
2019-02-19T22:10:32.710Z,33.60
2019-02-19T22:13:05.610Z,33.70
2019-02-19T22:15:39.210Z,33.90
2019-02-19T22:18:11.974Z,34.00
2019-02-19T22:20:46.261Z,34.10
2019-02-19T22:23:19.211Z,33.70
2019-02-19T22:25:52.313Z,33.40
2019-02-19T22:28:25.187Z,33.40
2019-02-19T22:30:58.270Z,33.70
2019-02-19T22:33:31.325Z,34.00
2019-02-19T22:36:04.134Z,34.10
2019-02-19T22:38:37.094Z,34.10
2019-02-19T22:41:09.771Z,34.20
2019-02-19T22:43:42.926Z,34.20
2019-02-19T22:46:15.962Z,34.50
2019-02-19T22:48:48.992Z,34.50
2019-02-19T22:51:21.855Z,34.10
2019-02-19T22:53:59.488Z,33.50
2019-02-19T22:56:33.611Z,33.00
2019-02-19T22:59:06.543Z,32.80
2019-02-19T23:01:40.780Z,32.80
2019-02-19T23:04:13.652Z,33.00
2019-02-19T23:06:46.528Z,32.80
2019-02-19T23:09:19.494Z,32.60
2019-02-19T23:11:52.302Z,32.50
2019-02-19T23:14:25.266Z,32.60
2019-02-19T23:16:58.275Z,32.70
2019-02-19T23:19:31.263Z,32.70
2019-02-19T23:22:04.391Z,32.60
2019-02-19T23:24:38.031Z,32.50
2019-02-19T23:27:10.828Z,32.60
2019-02-19T23:29:43.598Z,33.00
2019-02-19T23:32:16.386Z,33.10
2019-02-19T23:34:50.646Z,33.20
2019-02-19T23:37:23.462Z,32.90
2019-02-19T23:39:56.586Z,32.80
2019-02-19T23:42:29.560Z,33.00
2019-02-19T23:45:02.539Z,33.00
2019-02-19T23:47:35.323Z,32.70
2019-02-19T23:50:09.898Z,32.30
2019-02-19T23:52:42.751Z,32.00
2019-02-19T23:55:15.762Z,31.80
2019-02-19T23:57:48.587Z,31.60
